sensor_id;sensor_type;location;lat;lon;timestamp;temperature;humidity
66096;SHT31;53861;53.422;14.530;2023-04-06T00:01:24;3.43;79.96
66096;SHT31;53861;53.422;14.530;2023-04-06T00:04:01;3.75;78.52
66096;SHT31;53861;53.422;14.530;2023-04-06T00:06:34;3.87;77.45
66096;SHT31;53861;53.422;14.530;2023-04-06T00:09:06;3.99;77.02
66096;SHT31;53861;53.422;14.530;2023-04-06T00:11:39;3.99;76.45
66096;SHT31;53861;53.422;14.530;2023-04-06T00:14:11;3.99;76.52
66096;SHT31;53861;53.422;14.530;2023-04-06T00:16:41;3.83;77.38
66096;SHT31;53861;53.422;14.530;2023-04-06T00:19:11;3.94;77.53
66096;SHT31;53861;53.422;14.530;2023-04-06T00:21:45;4.04;77.45
66096;SHT31;53861;53.422;14.530;2023-04-06T00:24:16;4.09;76.60
66096;SHT31;53861;53.422;14.530;2023-04-06T00:26:46;4.10;76.48
66096;SHT31;53861;53.422;14.530;2023-04-06T00:29:15;3.99;76.55
66096;SHT31;53861;53.422;14.530;2023-04-06T00:31:45;3.83;77.29
66096;SHT31;53861;53.422;14.530;2023-04-06T00:34:19;3.72;77.79
66096;SHT31;53861;53.422;14.530;2023-04-06T00:36:50;3.69;77.96
66096;SHT31;53861;53.422;14.530;2023-04-06T00:39:20;3.55;78.06
66096;SHT31;53861;53.422;14.530;2023-04-06T00:41:51;3.63;77.83
66096;SHT31;53861;53.422;14.530;2023-04-06T00:44:22;3.59;77.34
66096;SHT31;53861;53.422;14.530;2023-04-06T00:46:52;3.49;78.57
66096;SHT31;53861;53.422;14.530;2023-04-06T00:49:30;3.41;78.74
66096;SHT31;53861;53.422;14.530;2023-04-06T00:51:58;3.43;78.76
66096;SHT31;53861;53.422;14.530;2023-04-06T00:54:40;3.43;78.76
66096;SHT31;53861;53.422;14.530;2023-04-06T00:57:16;3.43;79.15
66096;SHT31;53861;53.422;14.530;2023-04-06T00:59:46;3.43;78.80
66096;SHT31;53861;53.422;14.530;2023-04-06T01:02:16;3.34;78.79
66096;SHT31;53861;53.422;14.530;2023-04-06T01:04:45;3.29;79.54
66096;SHT31;53861;53.422;14.530;2023-04-06T01:07:13;3.24;79.29
66096;SHT31;53861;53.422;14.530;2023-04-06T01:09:44;3.14;79.92
66096;SHT31;53861;53.422;14.530;2023-04-06T01:12:11;3.10;80.40
66096;SHT31;53861;53.422;14.530;2023-04-06T01:14:40;3.22;80.08
66096;SHT31;53861;53.422;14.530;2023-04-06T01:17:11;3.28;80.33
66096;SHT31;53861;53.422;14.530;2023-04-06T01:19:45;3.11;80.13
66096;SHT31;53861;53.422;14.530;2023-04-06T01:22:16;3.15;80.37
66096;SHT31;53861;53.422;14.530;2023-04-06T01:24:46;3.20;80.42
66096;SHT31;53861;53.422;14.530;2023-04-06T01:27:20;3.24;80.19
66096;SHT31;53861;53.422;14.530;2023-04-06T01:29:50;3.35;80.01
66096;SHT31;53861;53.422;14.530;2023-04-06T01:32:21;3.55;79.10
66096;SHT31;53861;53.422;14.530;2023-04-06T01:35:04;3.56;78.86
66096;SHT31;53861;53.422;14.530;2023-04-06T01:37:33;3.71;78.68
66096;SHT31;53861;53.422;14.530;2023-04-06T01:40:01;3.68;78.81
66096;SHT31;53861;53.422;14.530;2023-04-06T01:42:35;3.73;78.26
66096;SHT31;53861;53.422;14.530;2023-04-06T01:45:02;3.90;77.70
66096;SHT31;53861;53.422;14.530;2023-04-06T01:47:34;4.02;77.33
66096;SHT31;53861;53.422;14.530;2023-04-06T01:50:01;4.07;77.05
66096;SHT31;53861;53.422;14.530;2023-04-06T01:52:40;4.17;76.85
66096;SHT31;53861;53.422;14.530;2023-04-06T01:55:11;4.17;77.26
66096;SHT31;53861;53.422;14.530;2023-04-06T01:57:39;4.20;76.82
66096;SHT31;53861;53.422;14.530;2023-04-06T02:00:15;4.25;76.81
66096;SHT31;53861;53.422;14.530;2023-04-06T02:02:43;4.24;76.29
66096;SHT31;53861;53.422;14.530;2023-04-06T02:05:10;4.30;76.21
66096;SHT31;53861;53.422;14.530;2023-04-06T02:07:44;4.27;76.16
66096;SHT31;53861;53.422;14.530;2023-04-06T02:10:12;4.29;76.17
66096;SHT31;53861;53.422;14.530;2023-04-06T02:12:43;4.27;75.65
66096;SHT31;53861;53.422;14.530;2023-04-06T02:15:14;4.23;76.17
66096;SHT31;53861;53.422;14.530;2023-04-06T02:17:42;4.25;76.38
66096;SHT31;53861;53.422;14.530;2023-04-06T02:20:15;4.29;75.98
66096;SHT31;53861;53.422;14.530;2023-04-06T02:22:47;4.24;76.35
66096;SHT31;53861;53.422;14.530;2023-04-06T02:25:15;4.27;76.20
66096;SHT31;53861;53.422;14.530;2023-04-06T02:27:46;4.25;75.95
66096;SHT31;53861;53.422;14.530;2023-04-06T02:30:19;4.32;76.26
66096;SHT31;53861;53.422;14.530;2023-04-06T02:32:47;4.32;75.69
66096;SHT31;53861;53.422;14.530;2023-04-06T02:35:18;4.21;76.64
66096;SHT31;53861;53.422;14.530;2023-04-06T02:37:50;4.09;76.36
66096;SHT31;53861;53.422;14.530;2023-04-06T02:40:20;4.14;76.71
66096;SHT31;53861;53.422;14.530;2023-04-06T02:42:52;4.20;76.60
66096;SHT31;53861;53.422;14.530;2023-04-06T02:45:24;4.18;76.17
66096;SHT31;53861;53.422;14.530;2023-04-06T02:47:55;4.17;77.07
66096;SHT31;53861;53.422;14.530;2023-04-06T02:50:25;4.13;76.11
66096;SHT31;53861;53.422;14.530;2023-04-06T02:52:54;4.23;76.26
66096;SHT31;53861;53.422;14.530;2023-04-06T02:55:24;4.13;76.22
66096;SHT31;53861;53.422;14.530;2023-04-06T02:57:54;4.21;76.33
66096;SHT31;53861;53.422;14.530;2023-04-06T03:00:25;4.27;76.33
66096;SHT31;53861;53.422;14.530;2023-04-06T03:02:55;4.23;75.73
66096;SHT31;53861;53.422;14.530;2023-04-06T03:05:25;4.37;75.52
66096;SHT31;53861;53.422;14.530;2023-04-06T03:08:03;4.34;76.38
66096;SHT31;53861;53.422;14.530;2023-04-06T03:10:31;4.23;75.97
66096;SHT31;53861;53.422;14.530;2023-04-06T03:12:59;4.20;75.73
66096;SHT31;53861;53.422;14.530;2023-04-06T03:15:31;4.16;76.25
66096;SHT31;53861;53.422;14.530;2023-04-06T03:18:00;4.17;75.73
66096;SHT31;53861;53.422;14.530;2023-04-06T03:20:28;4.23;76.17
66096;SHT31;53861;53.422;14.530;2023-04-06T03:22:55;4.23;76.61
66096;SHT31;53861;53.422;14.530;2023-04-06T03:25:24;4.14;76.35
66096;SHT31;53861;53.422;14.530;2023-04-06T03:27:51;4.06;76.32
66096;SHT31;53861;53.422;14.530;2023-04-06T03:30:19;3.97;76.36
66096;SHT31;53861;53.422;14.530;2023-04-06T03:32:47;3.96;77.23
66096;SHT31;53861;53.422;14.530;2023-04-06T03:35:20;3.94;77.71
66096;SHT31;53861;53.422;14.530;2023-04-06T03:37:48;3.89;77.16
66096;SHT31;53861;53.422;14.530;2023-04-06T03:40:15;4.02;77.13
66096;SHT31;53861;53.422;14.530;2023-04-06T03:42:48;4.06;76.65
66096;SHT31;53861;53.422;14.530;2023-04-06T03:45:15;4.02;76.62
66096;SHT31;53861;53.422;14.530;2023-04-06T03:47:44;3.94;76.83
66096;SHT31;53861;53.422;14.530;2023-04-06T03:50:15;3.82;77.47
66096;SHT31;53861;53.422;14.530;2023-04-06T03:52:42;3.80;77.14
66096;SHT31;53861;53.422;14.530;2023-04-06T03:55:10;3.87;77.69
66096;SHT31;53861;53.422;14.530;2023-04-06T03:57:37;3.94;77.40
66096;SHT31;53861;53.422;14.530;2023-04-06T04:00:11;3.94;76.96
66096;SHT31;53861;53.422;14.530;2023-04-06T04:02:39;3.94;76.53
66096;SHT31;53861;53.422;14.530;2023-04-06T04:05:07;3.99;76.56
66096;SHT31;53861;53.422;14.530;2023-04-06T04:07:34;3.99;76.68
66096;SHT31;53861;53.422;14.530;2023-04-06T04:10:05;3.89;75.90
66096;SHT31;53861;53.422;14.530;2023-04-06T04:12:39;3.80;75.94
66096;SHT31;53861;53.422;14.530;2023-04-06T04:15:16;3.89;75.85
66096;SHT31;53861;53.422;14.530;2023-04-06T04:17:47;3.89;75.19
66096;SHT31;53861;53.422;14.530;2023-04-06T04:20:23;3.75;76.01
66096;SHT31;53861;53.422;14.530;2023-04-06T04:22:54;3.66;75.75
66096;SHT31;53861;53.422;14.530;2023-04-06T04:25:27;3.80;76.11
66096;SHT31;53861;53.422;14.530;2023-04-06T04:27:57;3.82;75.60
66096;SHT31;53861;53.422;14.530;2023-04-06T04:30:49;3.90;75.85
66096;SHT31;53861;53.422;14.530;2023-04-06T04:33:20;3.89;76.02
66096;SHT31;53861;53.422;14.530;2023-04-06T04:35:50;3.76;75.90
66096;SHT31;53861;53.422;14.530;2023-04-06T04:38:18;3.78;77.05
66096;SHT31;53861;53.422;14.530;2023-04-06T04:40:51;3.85;76.19
66096;SHT31;53861;53.422;14.530;2023-04-06T04:43:21;3.80;75.68
66096;SHT31;53861;53.422;14.530;2023-04-06T04:45:51;3.66;75.08
66096;SHT31;53861;53.422;14.530;2023-04-06T04:48:24;3.66;75.49
66096;SHT31;53861;53.422;14.530;2023-04-06T04:50:51;3.72;75.12
66096;SHT31;53861;53.422;14.530;2023-04-06T04:53:21;3.76;75.63
66096;SHT31;53861;53.422;14.530;2023-04-06T04:55:50;3.73;75.32
66096;SHT31;53861;53.422;14.530;2023-04-06T04:58:20;3.79;75.72
66096;SHT31;53861;53.422;14.530;2023-04-06T05:00:56;3.76;75.09
66096;SHT31;53861;53.422;14.530;2023-04-06T05:03:25;3.76;75.38
66096;SHT31;53861;53.422;14.530;2023-04-06T05:05:56;3.87;75.52
66096;SHT31;53861;53.422;14.530;2023-04-06T05:08:35;3.89;75.25
66096;SHT31;53861;53.422;14.530;2023-04-06T05:11:02;3.94;74.64
66096;SHT31;53861;53.422;14.530;2023-04-06T05:13:30;3.87;73.76
66096;SHT31;53861;53.422;14.530;2023-04-06T05:16:01;3.93;74.49
66096;SHT31;53861;53.422;14.530;2023-04-06T05:18:37;3.97;72.66
66096;SHT31;53861;53.422;14.530;2023-04-06T05:21:06;4.06;73.65
66096;SHT31;53861;53.422;14.530;2023-04-06T05:23:40;4.14;72.97
66096;SHT31;53861;53.422;14.530;2023-04-06T05:26:10;4.18;72.75
66096;SHT31;53861;53.422;14.530;2023-04-06T05:28:40;3.99;72.93
66096;SHT31;53861;53.422;14.530;2023-04-06T05:31:11;4.02;73.13
66096;SHT31;53861;53.422;14.530;2023-04-06T05:33:40;3.92;72.34
66096;SHT31;53861;53.422;14.530;2023-04-06T05:36:24;4.07;73.83
66096;SHT31;53861;53.422;14.530;2023-04-06T05:38:55;4.16;73.05
66096;SHT31;53861;53.422;14.530;2023-04-06T05:41:24;4.02;71.87
66096;SHT31;53861;53.422;14.530;2023-04-06T05:43:55;4.09;72.77
66096;SHT31;53861;53.422;14.530;2023-04-06T05:46:24;4.16;72.93
66096;SHT31;53861;53.422;14.530;2023-04-06T05:48:52;4.27;73.22
66096;SHT31;53861;53.422;14.530;2023-04-06T05:51:20;4.37;72.60
66096;SHT31;53861;53.422;14.530;2023-04-06T05:53:49;4.48;72.00
66096;SHT31;53861;53.422;14.530;2023-04-06T05:56:22;4.54;70.53
66096;SHT31;53861;53.422;14.530;2023-04-06T05:58:51;4.64;70.94
66096;SHT31;53861;53.422;14.530;2023-04-06T06:01:20;4.71;71.30
66096;SHT31;53861;53.422;14.530;2023-04-06T06:03:49;4.84;70.10
66096;SHT31;53861;53.422;14.530;2023-04-06T06:06:20;5.08;70.36
66096;SHT31;53861;53.422;14.530;2023-04-06T06:08:56;5.11;69.76
66096;SHT31;53861;53.422;14.530;2023-04-06T06:11:25;5.35;68.83
66096;SHT31;53861;53.422;14.530;2023-04-06T06:13:55;5.22;67.84
66096;SHT31;53861;53.422;14.530;2023-04-06T06:16:28;5.13;67.81
66096;SHT31;53861;53.422;14.530;2023-04-06T06:19:05;5.94;68.35
66096;SHT31;53861;53.422;14.530;2023-04-06T06:21:40;6.90;64.37
66096;SHT31;53861;53.422;14.530;2023-04-06T06:24:12;7.18;64.13
66096;SHT31;53861;53.422;14.530;2023-04-06T06:26:44;7.40;63.07
66096;SHT31;53861;53.422;14.530;2023-04-06T06:29:12;8.81;60.31
66096;SHT31;53861;53.422;14.530;2023-04-06T06:31:40;9.23;58.52
66096;SHT31;53861;53.422;14.530;2023-04-06T06:34:11;10.38;57.77
66096;SHT31;53861;53.422;14.530;2023-04-06T06:36:39;11.50;53.83
66096;SHT31;53861;53.422;14.530;2023-04-06T06:39:10;11.85;55.18
66096;SHT31;53861;53.422;14.530;2023-04-06T06:41:37;11.78;54.02
66096;SHT31;53861;53.422;14.530;2023-04-06T06:44:06;10.88;54.08
66096;SHT31;53861;53.422;14.530;2023-04-06T06:46:35;12.42;50.61
66096;SHT31;53861;53.422;14.530;2023-04-06T06:49:16;12.96;48.47
66096;SHT31;53861;53.422;14.530;2023-04-06T06:51:46;13.27;48.78
66096;SHT31;53861;53.422;14.530;2023-04-06T06:54:16;12.87;49.00
66096;SHT31;53861;53.422;14.530;2023-04-06T06:56:44;12.86;48.68
66096;SHT31;53861;53.422;14.530;2023-04-06T06:59:22;13.74;49.30
66096;SHT31;53861;53.422;14.530;2023-04-06T07:01:56;13.50;50.07
66096;SHT31;53861;53.422;14.530;2023-04-06T07:04:30;14.04;46.38
66096;SHT31;53861;53.422;14.530;2023-04-06T07:07:00;13.65;47.97
66096;SHT31;53861;53.422;14.530;2023-04-06T07:09:31;14.88;46.17
66096;SHT31;53861;53.422;14.530;2023-04-06T07:12:01;15.49;42.14
66096;SHT31;53861;53.422;14.530;2023-04-06T07:14:30;14.01;46.85
66096;SHT31;53861;53.422;14.530;2023-04-06T07:17:00;15.87;43.14
66096;SHT31;53861;53.422;14.530;2023-04-06T07:19:36;14.22;44.34
66096;SHT31;53861;53.422;14.530;2023-04-06T07:22:11;13.92;47.46
66096;SHT31;53861;53.422;14.530;2023-04-06T07:24:41;16.71;40.45
66096;SHT31;53861;53.422;14.530;2023-04-06T07:27:09;17.40;41.14
66096;SHT31;53861;53.422;14.530;2023-04-06T07:29:43;15.08;43.91
66096;SHT31;53861;53.422;14.530;2023-04-06T07:32:11;15.28;44.97
66096;SHT31;53861;53.422;14.530;2023-04-06T07:34:41;16.78;44.25
66096;SHT31;53861;53.422;14.530;2023-04-06T07:37:11;16.30;44.95
66096;SHT31;53861;53.422;14.530;2023-04-06T07:39:40;16.02;44.16
66096;SHT31;53861;53.422;14.530;2023-04-06T07:42:16;16.21;43.72
66096;SHT31;53861;53.422;14.530;2023-04-06T07:44:45;15.51;43.63
66096;SHT31;53861;53.422;14.530;2023-04-06T07:47:12;15.92;43.50
66096;SHT31;53861;53.422;14.530;2023-04-06T07:49:41;16.06;45.40
66096;SHT31;53861;53.422;14.530;2023-04-06T07:52:09;16.34;45.52
66096;SHT31;53861;53.422;14.530;2023-04-06T07:54:36;15.96;43.40
66096;SHT31;53861;53.422;14.530;2023-04-06T07:57:03;15.85;45.01
66096;SHT31;53861;53.422;14.530;2023-04-06T07:59:31;17.42;40.30
66096;SHT31;53861;53.422;14.530;2023-04-06T08:01:58;15.63;44.59
66096;SHT31;53861;53.422;14.530;2023-04-06T08:04:26;16.23;45.83
66096;SHT31;53861;53.422;14.530;2023-04-06T08:06:55;17.47;44.20
66096;SHT31;53861;53.422;14.530;2023-04-06T08:09:24;17.35;41.20
66096;SHT31;53861;53.422;14.530;2023-04-06T08:11:51;17.66;42.19
66096;SHT31;53861;53.422;14.530;2023-04-06T08:14:19;17.28;43.83
66096;SHT31;53861;53.422;14.530;2023-04-06T08:16:46;17.38;41.51
66096;SHT31;53861;53.422;14.530;2023-04-06T08:19:13;16.61;41.56
66096;SHT31;53861;53.422;14.530;2023-04-06T08:21:43;17.26;41.79
66096;SHT31;53861;53.422;14.530;2023-04-06T08:24:12;16.51;45.01
66096;SHT31;53861;53.422;14.530;2023-04-06T08:26:40;16.94;44.61
66096;SHT31;53861;53.422;14.530;2023-04-06T08:29:08;18.05;41.40
66096;SHT31;53861;53.422;14.530;2023-04-06T08:31:35;19.31;37.24
66096;SHT31;53861;53.422;14.530;2023-04-06T08:34:04;18.96;38.56
66096;SHT31;53861;53.422;14.530;2023-04-06T08:36:31;16.85;43.71
66096;SHT31;53861;53.422;14.530;2023-04-06T08:39:00;18.52;39.14
66096;SHT31;53861;53.422;14.530;2023-04-06T08:41:28;19.34;39.36
66096;SHT31;53861;53.422;14.530;2023-04-06T08:43:58;18.73;39.57
66096;SHT31;53861;53.422;14.530;2023-04-06T08:46:26;18.96;39.93
66096;SHT31;53861;53.422;14.530;2023-04-06T08:48:56;20.77;36.02
66096;SHT31;53861;53.422;14.530;2023-04-06T08:51:24;19.57;36.79
66096;SHT31;53861;53.422;14.530;2023-04-06T08:53:52;19.43;36.68
66096;SHT31;53861;53.422;14.530;2023-04-06T08:56:21;19.87;34.49
66096;SHT31;53861;53.422;14.530;2023-04-06T08:58:50;20.09;34.52
66096;SHT31;53861;53.422;14.530;2023-04-06T09:01:21;17.74;40.61
66096;SHT31;53861;53.422;14.530;2023-04-06T09:03:49;17.50;41.61
66096;SHT31;53861;53.422;14.530;2023-04-06T09:06:18;18.00;39.40
66096;SHT31;53861;53.422;14.530;2023-04-06T09:08:45;18.66;37.86
66096;SHT31;53861;53.422;14.530;2023-04-06T09:11:13;17.90;39.78
66096;SHT31;53861;53.422;14.530;2023-04-06T09:13:48;17.47;41.69
66096;SHT31;53861;53.422;14.530;2023-04-06T09:16:18;18.01;41.42
66096;SHT31;53861;53.422;14.530;2023-04-06T09:18:46;18.42;41.83
66096;SHT31;53861;53.422;14.530;2023-04-06T09:21:16;18.31;39.06
66096;SHT31;53861;53.422;14.530;2023-04-06T09:23:44;19.30;41.11
66096;SHT31;53861;53.422;14.530;2023-04-06T09:26:13;19.63;37.41
66096;SHT31;53861;53.422;14.530;2023-04-06T09:28:42;19.28;36.61
66096;SHT31;53861;53.422;14.530;2023-04-06T09:31:11;20.75;36.36
66096;SHT31;53861;53.422;14.530;2023-04-06T09:33:42;20.01;36.99
66096;SHT31;53861;53.422;14.530;2023-04-06T09:36:09;20.19;36.81
66096;SHT31;53861;53.422;14.530;2023-04-06T09:38:37;20.33;37.03
66096;SHT31;53861;53.422;14.530;2023-04-06T09:41:05;20.90;36.53
66096;SHT31;53861;53.422;14.530;2023-04-06T09:43:32;22.98;33.78
66096;SHT31;53861;53.422;14.530;2023-04-06T09:46:00;20.97;37.57
66096;SHT31;53861;53.422;14.530;2023-04-06T09:48:31;19.47;37.13
66096;SHT31;53861;53.422;14.530;2023-04-06T09:51:04;19.54;37.26
66096;SHT31;53861;53.422;14.530;2023-04-06T09:53:34;20.30;35.18
66096;SHT31;53861;53.422;14.530;2023-04-06T09:56:06;21.99;35.08
66096;SHT31;53861;53.422;14.530;2023-04-06T09:58:37;22.24;31.04
66096;SHT31;53861;53.422;14.530;2023-04-06T10:01:12;18.56;35.15
66096;SHT31;53861;53.422;14.530;2023-04-06T10:03:45;17.81;34.38
66096;SHT31;53861;53.422;14.530;2023-04-06T10:06:18;20.87;34.74
66096;SHT31;53861;53.422;14.530;2023-04-06T10:08:47;22.42;32.70
66096;SHT31;53861;53.422;14.530;2023-04-06T10:11:16;23.59;30.13
66096;SHT31;53861;53.422;14.530;2023-04-06T10:13:45;24.26;32.06
66096;SHT31;53861;53.422;14.530;2023-04-06T10:16:14;23.25;32.26
66096;SHT31;53861;53.422;14.530;2023-04-06T10:18:44;22.56;31.80
66096;SHT31;53861;53.422;14.530;2023-04-06T10:21:18;19.12;37.35
66096;SHT31;53861;53.422;14.530;2023-04-06T10:23:48;16.13;39.78
66096;SHT31;53861;53.422;14.530;2023-04-06T10:26:17;14.43;42.88
66096;SHT31;53861;53.422;14.530;2023-04-06T10:28:46;14.84;43.10
66096;SHT31;53861;53.422;14.530;2023-04-06T10:31:13;14.08;42.79
66096;SHT31;53861;53.422;14.530;2023-04-06T10:33:41;17.36;40.89
66096;SHT31;53861;53.422;14.530;2023-04-06T10:36:12;19.61;35.87
66096;SHT31;53861;53.422;14.530;2023-04-06T10:38:42;20.22;32.69
66096;SHT31;53861;53.422;14.530;2023-04-06T10:41:11;20.11;32.43
66096;SHT31;53861;53.422;14.530;2023-04-06T10:43:39;18.18;36.18
66096;SHT31;53861;53.422;14.530;2023-04-06T10:46:09;16.61;40.36
66096;SHT31;53861;53.422;14.530;2023-04-06T10:48:38;15.20;41.62
66096;SHT31;53861;53.422;14.530;2023-04-06T10:51:10;16.44;38.86
66096;SHT31;53861;53.422;14.530;2023-04-06T10:53:38;15.21;40.15
66096;SHT31;53861;53.422;14.530;2023-04-06T10:56:09;15.21;38.45
66096;SHT31;53861;53.422;14.530;2023-04-06T10:58:38;14.81;42.31
66096;SHT31;53861;53.422;14.530;2023-04-06T11:01:11;14.95;39.05
66096;SHT31;53861;53.422;14.530;2023-04-06T11:03:42;14.51;41.76
66096;SHT31;53861;53.422;14.530;2023-04-06T11:06:10;13.95;41.25
66096;SHT31;53861;53.422;14.530;2023-04-06T11:08:38;14.43;43.00
66096;SHT31;53861;53.422;14.530;2023-04-06T11:11:08;15.05;41.86
66096;SHT31;53861;53.422;14.530;2023-04-06T11:13:38;14.50;41.74
66096;SHT31;53861;53.422;14.530;2023-04-06T11:16:05;14.64;42.23
66096;SHT31;53861;53.422;14.530;2023-04-06T11:18:33;15.42;39.10
66096;SHT31;53861;53.422;14.530;2023-04-06T11:21:00;15.32;41.55
66096;SHT31;53861;53.422;14.530;2023-04-06T11:23:27;14.84;42.04
66096;SHT31;53861;53.422;14.530;2023-04-06T11:25:55;14.69;43.26
66096;SHT31;53861;53.422;14.530;2023-04-06T11:28:24;14.53;41.41
66096;SHT31;53861;53.422;14.530;2023-04-06T11:30:51;14.56;41.47
66096;SHT31;53861;53.422;14.530;2023-04-06T11:33:22;14.74;44.31
66096;SHT31;53861;53.422;14.530;2023-04-06T11:35:50;14.49;45.15
66096;SHT31;53861;53.422;14.530;2023-04-06T11:38:19;14.10;42.26
66096;SHT31;53861;53.422;14.530;2023-04-06T11:40:47;14.13;43.12
66096;SHT31;53861;53.422;14.530;2023-04-06T11:43:27;14.37;40.61
66096;SHT31;53861;53.422;14.530;2023-04-06T11:46:00;14.28;43.96
66096;SHT31;53861;53.422;14.530;2023-04-06T11:48:28;13.88;45.77
66096;SHT31;53861;53.422;14.530;2023-04-06T11:50:57;13.77;45.38
66096;SHT31;53861;53.422;14.530;2023-04-06T11:53:27;13.61;45.16
66096;SHT31;53861;53.422;14.530;2023-04-06T11:55:55;13.89;46.30
66096;SHT31;53861;53.422;14.530;2023-04-06T11:58:22;13.79;44.36
66096;SHT31;53861;53.422;14.530;2023-04-06T12:00:51;13.69;41.49
66096;SHT31;53861;53.422;14.530;2023-04-06T12:03:18;13.89;42.53
66096;SHT31;53861;53.422;14.530;2023-04-06T12:05:46;13.65;43.03
66096;SHT31;53861;53.422;14.530;2023-04-06T12:08:13;13.38;46.00
66096;SHT31;53861;53.422;14.530;2023-04-06T12:10:40;12.96;44.95
66096;SHT31;53861;53.422;14.530;2023-04-06T12:13:08;13.00;43.91
66096;SHT31;53861;53.422;14.530;2023-04-06T12:15:35;13.30;42.76
66096;SHT31;53861;53.422;14.530;2023-04-06T12:18:04;13.16;43.28
66096;SHT31;53861;53.422;14.530;2023-04-06T12:20:31;12.94;42.67
66096;SHT31;53861;53.422;14.530;2023-04-06T12:22:58;12.83;43.52
66096;SHT31;53861;53.422;14.530;2023-04-06T12:25:26;12.79;44.61
66096;SHT31;53861;53.422;14.530;2023-04-06T12:27:54;13.17;43.38
66096;SHT31;53861;53.422;14.530;2023-04-06T12:30:21;13.23;42.86
66096;SHT31;53861;53.422;14.530;2023-04-06T12:32:50;12.99;44.67
66096;SHT31;53861;53.422;14.530;2023-04-06T12:35:18;12.97;41.71
66096;SHT31;53861;53.422;14.530;2023-04-06T12:37:47;13.06;42.20
66096;SHT31;53861;53.422;14.530;2023-04-06T12:40:14;12.86;44.07
66096;SHT31;53861;53.422;14.530;2023-04-06T12:42:42;12.73;44.22
66096;SHT31;53861;53.422;14.530;2023-04-06T12:45:10;12.83;45.15
66096;SHT31;53861;53.422;14.530;2023-04-06T12:47:37;12.93;45.51
66096;SHT31;53861;53.422;14.530;2023-04-06T12:50:06;12.96;46.75
66096;SHT31;53861;53.422;14.530;2023-04-06T12:52:35;12.83;45.48
66096;SHT31;53861;53.422;14.530;2023-04-06T12:55:02;12.60;44.82
66096;SHT31;53861;53.422;14.530;2023-04-06T12:57:30;12.89;44.30
66096;SHT31;53861;53.422;14.530;2023-04-06T12:59:58;12.82;44.34
66096;SHT31;53861;53.422;14.530;2023-04-06T13:02:26;12.82;45.25
66096;SHT31;53861;53.422;14.530;2023-04-06T13:04:53;12.86;43.48
66096;SHT31;53861;53.422;14.530;2023-04-06T13:07:21;12.52;42.40
66096;SHT31;53861;53.422;14.530;2023-04-06T13:09:51;12.73;43.75
66096;SHT31;53861;53.422;14.530;2023-04-06T13:12:18;12.80;44.85
66096;SHT31;53861;53.422;14.530;2023-04-06T13:14:46;12.53;44.10
66096;SHT31;53861;53.422;14.530;2023-04-06T13:17:16;12.49;44.04
66096;SHT31;53861;53.422;14.530;2023-04-06T13:19:44;12.59;44.78
66096;SHT31;53861;53.422;14.530;2023-04-06T13:22:11;12.41;42.57
66096;SHT31;53861;53.422;14.530;2023-04-06T13:24:39;12.36;42.94
66096;SHT31;53861;53.422;14.530;2023-04-06T13:27:08;12.55;46.19
66096;SHT31;53861;53.422;14.530;2023-04-06T13:29:35;12.46;44.55
66096;SHT31;53861;53.422;14.530;2023-04-06T13:32:03;12.53;44.04
66096;SHT31;53861;53.422;14.530;2023-04-06T13:34:30;12.56;42.72
66096;SHT31;53861;53.422;14.530;2023-04-06T13:36:58;12.43;43.44
66096;SHT31;53861;53.422;14.530;2023-04-06T13:39:25;12.33;46.95
66096;SHT31;53861;53.422;14.530;2023-04-06T13:41:53;12.22;46.62
66096;SHT31;53861;53.422;14.530;2023-04-06T13:44:22;11.84;44.06
66096;SHT31;53861;53.422;14.530;2023-04-06T13:46:50;11.60;45.38
66096;SHT31;53861;53.422;14.530;2023-04-06T13:49:17;11.64;45.89
66096;SHT31;53861;53.422;14.530;2023-04-06T13:51:45;11.51;45.95
66096;SHT31;53861;53.422;14.530;2023-04-06T13:54:12;11.73;44.41
66096;SHT31;53861;53.422;14.530;2023-04-06T13:56:40;11.84;43.49
66096;SHT31;53861;53.422;14.530;2023-04-06T13:59:07;11.77;44.53
66096;SHT31;53861;53.422;14.530;2023-04-06T14:01:36;11.59;44.55
66096;SHT31;53861;53.422;14.530;2023-04-06T14:04:04;11.16;45.19
66096;SHT31;53861;53.422;14.530;2023-04-06T14:06:31;11.50;43.66
66096;SHT31;53861;53.422;14.530;2023-04-06T14:08:58;11.57;45.59
66096;SHT31;53861;53.422;14.530;2023-04-06T14:11:25;11.40;44.97
66096;SHT31;53861;53.422;14.530;2023-04-06T14:13:53;11.24;46.13
66096;SHT31;53861;53.422;14.530;2023-04-06T14:16:21;11.36;47.90
66096;SHT31;53861;53.422;14.530;2023-04-06T14:18:50;11.34;44.68
66096;SHT31;53861;53.422;14.530;2023-04-06T14:21:18;11.36;43.84
66096;SHT31;53861;53.422;14.530;2023-04-06T14:23:45;11.06;45.10
66096;SHT31;53861;53.422;14.530;2023-04-06T14:26:13;10.95;47.86
66096;SHT31;53861;53.422;14.530;2023-04-06T14:28:41;11.05;48.82
66096;SHT31;53861;53.422;14.530;2023-04-06T14:31:13;11.30;47.88
66096;SHT31;53861;53.422;14.530;2023-04-06T14:33:42;11.12;44.98
66096;SHT31;53861;53.422;14.530;2023-04-06T14:36:10;11.06;50.39
66096;SHT31;53861;53.422;14.530;2023-04-06T14:38:38;10.96;48.28
66096;SHT31;53861;53.422;14.530;2023-04-06T14:41:07;10.86;47.74
66096;SHT31;53861;53.422;14.530;2023-04-06T14:43:35;11.18;46.85
66096;SHT31;53861;53.422;14.530;2023-04-06T14:46:02;11.64;43.34
66096;SHT31;53861;53.422;14.530;2023-04-06T14:48:29;12.12;46.86
66096;SHT31;53861;53.422;14.530;2023-04-06T14:50:57;12.46;45.46
66096;SHT31;53861;53.422;14.530;2023-04-06T14:53:26;12.77;46.44
66096;SHT31;53861;53.422;14.530;2023-04-06T14:55:53;12.79;44.75
66096;SHT31;53861;53.422;14.530;2023-04-06T14:58:22;12.45;43.06
66096;SHT31;53861;53.422;14.530;2023-04-06T15:00:55;12.72;45.37
66096;SHT31;53861;53.422;14.530;2023-04-06T15:03:22;13.08;42.68
66096;SHT31;53861;53.422;14.530;2023-04-06T15:05:51;13.04;41.38
66096;SHT31;53861;53.422;14.530;2023-04-06T15:08:18;12.65;41.70
66096;SHT31;53861;53.422;14.530;2023-04-06T15:10:48;12.52;45.64
66096;SHT31;53861;53.422;14.530;2023-04-06T15:13:16;12.83;46.03
66096;SHT31;53861;53.422;14.530;2023-04-06T15:15:43;12.56;43.75
66096;SHT31;53861;53.422;14.530;2023-04-06T15:18:12;12.70;47.62
66096;SHT31;53861;53.422;14.530;2023-04-06T15:20:39;13.28;43.28
66096;SHT31;53861;53.422;14.530;2023-04-06T15:23:06;13.17;41.97
66096;SHT31;53861;53.422;14.530;2023-04-06T15:25:33;13.23;42.53
66096;SHT31;53861;53.422;14.530;2023-04-06T15:28:02;13.00;43.19
66096;SHT31;53861;53.422;14.530;2023-04-06T15:30:29;13.06;44.41
66096;SHT31;53861;53.422;14.530;2023-04-06T15:32:58;12.83;44.53
66096;SHT31;53861;53.422;14.530;2023-04-06T15:35:27;12.63;44.15
66096;SHT31;53861;53.422;14.530;2023-04-06T15:37:54;12.49;43.43